Time;durP1;ratioP1;P1;durP2;ratioP2;P2;SDS_P1;SDS_P2;PMS_P1;PMS_P2;Temp;Humidity;BMP_temperature;BMP_pressure;BME280_temperature;BME280_humidity;BME280_pressure;Samples;Min_cycle;Max_cycle;Signal;HPM_P1;HPM_P2
2021/07/19 00:02:00;;;;;;;4.83;4.37;;;20.70;99.90;;;;;;5094304;28;20801;-81
2021/07/19 00:04:26;;;;;;;5.80;4.63;;;20.70;99.90;;;;;;5094193;28;20802;-81
2021/07/19 00:17:10;;;;;;;5.97;3.93;;;20.80;99.90;;;;;;5064068;28;21045;-81
2021/07/19 00:26:19;;;;;;;5.17;4.10;;;20.90;99.90;;;;;;5027179;28;20519;-81
2021/07/19 00:28:46;;;;;;;4.13;3.40;;;21.00;99.90;;;;;;5073372;28;21007;-81
2021/07/19 00:31:12;;;;;;;9.60;3.87;;;21.00;99.90;;;;;;5073187;28;20500;-81
2021/07/19 00:33:40;;;;;;;3.63;3.30;;;21.00;99.90;;;;;;5072951;28;20554;-81
2021/07/19 00:36:07;;;;;;;3.93;3.53;;;21.10;99.90;;;;;;5073184;28;21056;-81
2021/07/19 00:38:34;;;;;;;6.20;3.43;;;21.10;99.90;;;;;;5073257;28;20908;-81
2021/07/19 00:41:00;;;;;;;5.10;3.10;;;21.00;99.90;;;;;;5073476;28;20451;-81
2021/07/19 00:43:27;;;;;;;4.60;3.80;;;21.00;99.90;;;;;;5073290;28;20538;-81
2021/07/19 00:45:54;;;;;;;3.90;3.60;;;20.90;99.90;;;;;;5073074;28;20544;-81
2021/07/19 00:48:20;;;;;;;7.43;4.10;;;20.90;99.90;;;;;;5073195;28;20530;-81
2021/07/19 00:50:49;;;;;;;7.23;3.50;;;20.80;99.90;;;;;;5072993;28;20447;-80
2021/07/19 00:53:15;;;;;;;3.90;3.70;;;20.70;99.90;;;;;;5072939;28;20555;-81
2021/07/19 00:55:45;;;;;;;5.77;3.90;;;20.80;99.90;;;;;;5072639;28;20570;-81
2021/07/19 00:58:14;;;;;;;3.77;3.47;;;20.70;99.90;;;;;;5072888;28;20484;-81
2021/07/19 01:00:43;;;;;;;4.60;4.20;;;20.70;99.90;;;;;;5072978;28;20893;-81
2021/07/19 01:03:11;;;;;;;4.60;4.20;;;20.70;99.90;;;;;;5073154;28;20513;-80
2021/07/19 01:05:39;;;;;;;3.97;3.67;;;20.60;99.90;;;;;;5072913;28;20539;-80
2021/07/19 01:08:08;;;;;;;6.30;4.50;;;20.60;99.90;;;;;;5072959;28;20538;-80
2021/07/19 01:10:35;;;;;;;4.90;4.40;;;20.60;99.90;;;;;;5072827;28;20451;-80
2021/07/19 01:13:02;;;;;;;7.97;4.73;;;20.50;99.90;;;;;;5089349;28;20484;-80
2021/07/19 01:15:30;;;;;;;6.53;4.70;;;20.40;99.90;;;;;;5092796;28;20853;-80
2021/07/19 01:17:57;;;;;;;7.60;4.93;;;20.30;99.90;;;;;;5092978;28;20479;-80
2021/07/19 01:20:30;;;;;;;5.20;4.70;;;20.30;99.90;;;;;;5092764;28;20803;-80
2021/07/19 01:23:15;;;;;;;5.37;4.87;;;20.20;99.90;;;;;;5092836;28;20964;-80
2021/07/19 01:26:07;;;;;;;5.27;4.77;;;20.10;99.90;;;;;;5092678;28;20937;-80
2021/07/19 01:28:37;;;;;;;6.07;4.83;;;20.10;99.90;;;;;;5092888;28;20537;-80
2021/07/19 01:31:10;;;;;;;8.40;5.17;;;20.10;99.90;;;;;;5092678;28;20542;-80
2021/07/19 01:33:38;;;;;;;7.20;4.90;;;20.00;99.90;;;;;;5092998;28;20893;-80
2021/07/19 01:36:05;;;;;;;7.57;4.93;;;19.90;99.90;;;;;;5092717;28;20478;-80
2021/07/19 01:38:32;;;;;;;4.67;4.27;;;19.90;99.90;;;;;;5092876;28;20533;-80
2021/07/19 01:41:01;;;;;;;9.57;6.20;;;19.80;99.90;;;;;;5092570;28;20537;-80
2021/07/19 01:43:31;;;;;;;9.13;5.10;;;19.80;99.90;;;;;;5093933;28;20533;-80
2021/07/19 01:46:01;;;;;;;6.73;5.23;;;19.70;99.90;;;;;;5096691;28;20485;-80
2021/07/19 01:48:30;;;;;;;7.10;5.40;;;19.70;99.90;;;;;;5096782;28;20442;-80
2021/07/19 01:50:58;;;;;;;8.57;4.73;;;19.70;99.90;;;;;;5096397;28;20991;-80
2021/07/19 01:53:25;;;;;;;6.47;4.57;;;19.80;99.90;;;;;;5096628;28;20485;-80
2021/07/19 01:55:53;;;;;;;6.77;4.87;;;19.70;99.90;;;;;;5096087;28;20992;-80
2021/07/19 01:58:20;;;;;;;6.80;4.70;;;19.70;99.90;;;;;;5096659;28;20442;-80
2021/07/19 02:00:47;;;;;;;6.43;4.60;;;19.70;99.90;;;;;;5096333;28;20537;-80
2021/07/19 02:03:15;;;;;;;10.10;4.63;;;19.70;99.90;;;;;;5096502;28;20878;-80
2021/07/19 02:05:44;;;;;;;6.67;6.00;;;19.60;99.90;;;;;;5096299;28;20541;-80
2021/07/19 02:08:15;;;;;;;7.00;4.80;;;19.40;99.90;;;;;;5096248;28;20472;-80
2021/07/19 02:10:41;;;;;;;6.73;5.13;;;19.40;99.90;;;;;;5096257;28;20538;-80
2021/07/19 02:13:11;;;;;;;5.60;4.80;;;19.30;99.90;;;;;;5078878;28;20537;-80
2021/07/19 02:15:40;;;;;;;7.30;5.10;;;19.40;99.90;;;;;;5075784;28;20447;-80
2021/07/19 02:18:08;;;;;;;8.40;5.00;;;19.40;99.90;;;;;;5075937;28;20538;-80
2021/07/19 02:20:36;;;;;;;6.07;5.10;;;19.30;99.90;;;;;;5075873;28;20486;-80
2021/07/19 02:23:06;;;;;;;11.00;4.80;;;19.30;99.90;;;;;;5075587;28;20974;-80
2021/07/19 02:25:33;;;;;;;5.83;5.00;;;19.20;99.90;;;;;;5075902;28;20879;-80
2021/07/19 02:28:01;;;;;;;6.37;4.80;;;19.30;99.90;;;;;;5075841;28;20538;-80
2021/07/19 02:30:29;;;;;;;10.43;5.37;;;19.20;99.90;;;;;;5075746;28;20451;-80
2021/07/19 02:32:57;;;;;;;9.60;4.80;;;19.10;99.90;;;;;;5075468;28;20538;-80
2021/07/19 02:35:26;;;;;;;7.13;5.40;;;19.00;99.90;;;;;;5075560;28;20487;-80
2021/07/19 02:38:01;;;;;;;14.23;4.90;;;18.90;99.90;;;;;;5075541;28;20565;-80
2021/07/19 02:40:28;;;;;;;8.63;4.83;;;18.80;99.90;;;;;;5075739;28;20447;-80
2021/07/19 02:42:57;;;;;;;5.67;4.93;;;18.80;99.90;;;;;;5075577;28;20855;-80
2021/07/19 02:45:25;;;;;;;6.00;5.03;;;18.80;99.90;;;;;;5075334;28;20542;-80
2021/07/19 02:47:52;;;;;;;11.90;5.17;;;18.80;99.90;;;;;;5075316;28;21017;-80
2021/07/19 02:50:23;;;;;;;8.17;4.90;;;18.80;99.90;;;;;;5075223;28;20983;-80
2021/07/19 02:52:50;;;;;;;9.73;4.90;;;18.80;99.90;;;;;;5075368;28;20456;-80
2021/07/19 02:55:18;;;;;;;9.03;5.20;;;18.80;99.90;;;;;;5074544;28;20904;-80
2021/07/19 02:57:46;;;;;;;12.90;5.57;;;18.70;99.90;;;;;;5074932;28;20977;-80
2021/07/19 03:00:15;;;;;;;9.30;5.07;;;18.70;99.90;;;;;;5075068;28;21014;-80
2021/07/19 03:02:44;;;;;;;6.30;4.50;;;18.80;99.90;;;;;;5074893;28;20534;-80
2021/07/19 03:05:13;;;;;;;10.83;5.90;;;18.80;99.90;;;;;;5075064;28;20558;-80
2021/07/19 03:07:41;;;;;;;5.13;4.57;;;18.90;99.90;;;;;;5074805;28;20985;-80
2021/07/19 03:10:10;;;;;;;6.60;4.93;;;18.90;99.90;;;;;;5074918;28;20534;-80
2021/07/19 03:12:41;;;;;;;10.13;5.23;;;18.90;99.90;;;;;;5087764;28;20439;-80
2021/07/19 03:15:09;;;;;;;10.93;5.00;;;19.00;99.90;;;;;;5095040;28;20450;-80
2021/07/19 03:17:38;;;;;;;5.13;3.83;;;19.00;99.90;;;;;;5094940;28;20559;-80
2021/07/19 03:20:07;;;;;;;8.90;4.80;;;18.90;99.90;;;;;;5094802;28;20446;-80
2021/07/19 03:22:37;;;;;;;4.93;4.07;;;18.90;99.90;;;;;;5094657;28;20993;-80
2021/07/19 03:25:05;;;;;;;8.70;4.20;;;18.80;99.90;;;;;;5094881;28;20447;-80
2021/07/19 03:27:32;;;;;;;7.43;4.30;;;18.90;99.90;;;;;;5094817;28;20542;-80
2021/07/19 03:30:00;;;;;;;13.57;4.00;;;18.90;99.90;;;;;;5094917;28;20459;-80
2021/07/19 03:32:27;;;;;;;8.37;4.67;;;18.90;99.90;;;;;;5094550;28;21031;-80
2021/07/19 03:34:55;;;;;;;8.20;4.73;;;18.90;99.90;;;;;;5094756;28;20538;-80
2021/07/19 03:37:22;;;;;;;8.60;4.23;;;18.80;99.90;;;;;;5094523;28;21035;-80
2021/07/19 03:39:51;;;;;;;6.30;4.37;;;18.80;99.90;;;;;;5094504;28;20817;-80
2021/07/19 03:42:18;;;;;;;7.03;4.27;;;18.90;99.90;;;;;;5094416;28;20779;-80
2021/07/19 03:44:45;;;;;;;6.13;4.00;;;18.90;99.90;;;;;;5094497;28;20483;-80
2021/07/19 03:47:14;;;;;;;6.97;4.00;;;19.00;99.90;;;;;;5094321;28;21032;-80
2021/07/19 03:49:42;;;;;;;5.00;3.90;;;19.00;99.90;;;;;;5094493;28;20529;-80
2021/07/19 03:52:09;;;;;;;6.07;3.43;;;18.90;99.90;;;;;;5094149;28;20497;-80
2021/07/19 03:54:35;;;;;;;7.83;4.70;;;19.00;99.90;;;;;;5094290;28;20483;-80
2021/07/19 03:57:03;;;;;;;5.53;3.80;;;19.00;99.90;;;;;;5093903;28;20573;-80
2021/07/19 03:59:32;;;;;;;7.60;3.80;;;19.00;99.90;;;;;;5094182;28;21000;-80
2021/07/19 04:02:06;;;;;;;8.20;4.17;;;18.90;99.90;;;;;;5094140;28;20476;-80
2021/07/19 04:04:39;;;;;;;6.97;4.30;;;18.90;99.90;;;;;;5094207;28;20496;-80
2021/07/19 04:07:06;;;;;;;9.30;4.43;;;18.80;99.90;;;;;;5093061;28;20516;-80
2021/07/19 04:09:39;;;;;;;7.33;4.70;;;18.70;99.90;;;;;;5094039;28;20995;-80
2021/07/19 04:12:08;;;;;;;8.27;4.07;;;18.70;99.90;;;;;;5085178;28;20446;-80
2021/07/19 04:14:35;;;;;;;5.27;3.40;;;18.60;99.90;;;;;;5073692;28;20479;-80
2021/07/19 04:17:02;;;;;;;8.17;3.73;;;18.50;99.90;;;;;;5073465;28;20575;-80
2021/07/19 04:19:29;;;;;;;9.97;4.17;;;18.40;99.90;;;;;;5073510;28;20483;-80
2021/07/19 04:21:57;;;;;;;7.23;3.33;;;18.40;99.90;;;;;;5073405;28;20497;-80
2021/07/19 04:24:24;;;;;;;8.10;3.60;;;18.40;99.90;;;;;;5073459;28;20444;-80
2021/07/19 04:26:51;;;;;;;16.00;4.57;;;18.40;99.90;;;;;;5073509;28;20448;-80
2021/07/19 04:29:21;;;;;;;5.17;3.83;;;18.50;99.90;;;;;;5073377;28;20500;-80
2021/07/19 04:31:53;;;;;;;7.50;3.77;;;18.50;99.90;;;;;;5073535;28;20447;-80
2021/07/19 04:34:26;;;;;;;7.50;3.63;;;18.60;99.90;;;;;;5073199;28;20475;-80
2021/07/19 04:36:52;;;;;;;14.17;4.80;;;18.60;99.90;;;;;;5073642;28;20532;-80
2021/07/19 04:39:20;;;;;;;8.20;3.47;;;18.60;99.90;;;;;;5073065;28;21001;-80
2021/07/19 04:41:47;;;;;;;11.93;4.03;;;18.70;99.90;;;;;;5073247;28;20538;-80
2021/07/19 04:44:13;;;;;;;9.53;3.93;;;18.70;99.90;;;;;;5073102;28;20483;-80
2021/07/19 04:46:40;;;;;;;10.60;3.97;;;18.60;99.90;;;;;;5073054;28;20447;-80
2021/07/19 04:49:08;;;;;;;9.23;4.27;;;18.70;99.90;;;;;;5073007;28;20993;-80
2021/07/19 04:51:35;;;;;;;8.63;3.50;;;18.70;99.90;;;;;;5072995;28;20976;-80
2021/07/19 04:54:02;;;;;;;5.30;3.40;;;18.80;99.90;;;;;;5073036;28;20999;-80
2021/07/19 04:56:33;;;;;;;6.57;3.53;;;18.80;99.90;;;;;;5072796;28;20510;-80
2021/07/19 04:59:01;;;;;;;9.73;3.53;;;18.90;99.90;;;;;;5072944;28;20530;-80
2021/07/19 05:01:29;;;;;;;10.70;3.60;;;18.90;99.90;;;;;;5072879;28;20542;-80
2021/07/19 05:03:57;;;;;;;9.10;4.70;;;18.90;99.90;;;;;;5072988;28;20475;-80
2021/07/19 05:06:26;;;;;;;10.17;4.43;;;18.90;99.90;;;;;;5073271;28;20439;-80
2021/07/19 05:08:53;;;;;;;7.77;3.70;;;19.10;99.90;;;;;;5072818;28;20486;-80
2021/07/19 05:11:22;;;;;;;7.43;3.87;;;19.10;99.90;;;;;;5075116;28;20538;-80
2021/07/19 05:13:50;;;;;;;5.27;3.40;;;19.20;99.90;;;;;;5092853;28;20542;-80
2021/07/19 05:16:18;;;;;;;7.93;3.37;;;19.20;99.90;;;;;;5093380;28;20445;-80
2021/07/19 05:18:48;;;;;;;7.77;3.37;;;19.20;99.90;;;;;;5096429;28;20482;-80
2021/07/19 05:21:14;;;;;;;7.17;3.23;;;19.30;99.90;;;;;;5099545;28;20541;-80
2021/07/19 05:23:44;;;;;;;8.30;4.13;;;19.40;99.90;;;;;;5099731;28;20485;-80
2021/07/19 05:26:11;;;;;;;7.93;3.70;;;19.50;99.90;;;;;;5099598;28;20450;-80
2021/07/19 05:28:38;;;;;;;10.27;3.53;;;19.40;99.90;;;;;;5099978;28;20945;-80
2021/07/19 05:31:05;;;;;;;7.93;3.80;;;19.40;99.90;;;;;;5099717;28;20450;-80
2021/07/19 05:33:32;;;;;;;13.10;3.93;;;19.50;99.90;;;;;;5099631;28;20478;-80
2021/07/19 05:35:59;;;;;;;7.53;4.27;;;19.50;99.90;;;;;;5099600;28;20484;-81
2021/07/19 05:38:25;;;;;;;8.20;4.10;;;19.60;99.90;;;;;;5099376;28;20504;-81
2021/07/19 05:40:52;;;;;;;7.70;5.00;;;19.60;99.90;;;;;;5099394;28;20535;-81
2021/07/19 05:43:19;;;;;;;4.57;3.70;;;19.60;99.90;;;;;;5099550;28;20450;-81
2021/07/19 05:45:46;;;;;;;8.63;4.13;;;19.50;99.90;;;;;;5099474;28;20457;-81
2021/07/19 05:48:14;;;;;;;7.70;3.90;;;19.60;99.90;;;;;;5099487;28;20450;-80
2021/07/19 05:50:41;;;;;;;8.50;4.30;;;19.70;99.90;;;;;;5099575;28;20538;-80
2021/07/19 05:53:09;;;;;;;6.90;3.90;;;19.80;99.90;;;;;;5099440;28;20446;-80
2021/07/19 05:55:35;;;;;;;9.30;4.47;;;20.00;99.90;;;;;;5099446;28;20504;-80
2021/07/19 05:58:02;;;;;;;9.50;3.87;;;20.40;99.90;;;;;;5099538;28;20509;-80
2021/07/19 06:00:29;;;;;;;6.90;3.70;;;20.70;99.90;;;;;;5099802;28;20855;-80
2021/07/19 06:02:55;;;;;;;4.83;4.10;;;21.00;99.90;;;;;;5099773;28;20474;-80
2021/07/19 06:05:24;;;;;;;7.20;4.60;;;21.20;99.90;;;;;;5099479;28;20489;-80
2021/07/19 06:07:51;;;;;;;5.93;4.13;;;21.20;99.90;;;;;;5099427;28;20813;-80
2021/07/19 06:10:18;;;;;;;8.17;4.27;;;21.20;99.90;;;;;;5099232;28;20457;-80
2021/07/19 06:12:45;;;;;;;7.50;4.10;;;21.30;99.90;;;;;;5085388;28;20483;-80
2021/07/19 06:15:13;;;;;;;9.70;4.00;;;21.60;99.90;;;;;;5079145;28;20788;-80
2021/07/19 06:17:40;;;;;;;7.87;4.30;;;21.70;99.90;;;;;;5079134;28;20483;-80
2021/07/19 06:20:09;;;;;;;7.27;4.50;;;21.60;99.90;;;;;;5079051;28;20478;-80
2021/07/19 06:22:39;;;;;;;6.27;4.10;;;21.70;99.90;;;;;;5078900;28;20500;-80
2021/07/19 06:25:07;;;;;;;8.37;4.83;;;21.90;99.90;;;;;;5078918;28;20446;-80
2021/07/19 06:27:34;;;;;;;9.20;4.83;;;22.10;99.90;;;;;;5079109;28;20538;-80
2021/07/19 06:30:00;;;;;;;7.27;3.90;;;22.30;99.90;;;;;;5076473;28;20453;-81
2021/07/19 06:32:27;;;;;;;4.90;4.30;;;22.90;99.90;;;;;;5075885;28;20493;-81
2021/07/19 06:34:56;;;;;;;5.00;4.50;;;23.40;99.90;;;;;;5075593;28;20447;-81
2021/07/19 06:37:23;;;;;;;8.07;4.53;;;23.60;99.90;;;;;;5075520;28;20471;-81
2021/07/19 06:39:51;;;;;;;6.20;3.63;;;23.40;99.90;;;;;;5075637;28;20532;-81
2021/07/19 06:42:18;;;;;;;6.87;4.10;;;23.80;99.90;;;;;;5075642;28;20543;-81
2021/07/19 06:44:46;;;;;;;7.90;4.40;;;24.10;99.90;;;;;;5075428;28;20505;-81
2021/07/19 06:47:12;;;;;;;8.60;4.73;;;24.40;99.90;;;;;;5075649;28;20447;-81
2021/07/19 06:49:39;;;;;;;4.97;4.00;;;24.40;99.90;;;;;;5075287;28;20447;-81
2021/07/19 06:52:08;;;;;;;9.33;4.53;;;24.50;99.90;;;;;;5075656;28;20530;-81
2021/07/19 06:54:35;;;;;;;7.00;5.13;;;24.50;99.90;;;;;;5075415;28;20534;-81
2021/07/19 06:57:03;;;;;;;9.50;5.93;;;24.50;99.90;;;;;;5075031;28;20511;-81
2021/07/19 06:59:30;;;;;;;6.03;5.20;;;24.50;99.90;;;;;;5075326;28;20542;-81
2021/07/19 07:01:57;;;;;;;9.63;4.80;;;24.10;99.90;;;;;;5075114;28;20502;-81
2021/07/19 07:04:23;;;;;;;7.33;4.57;;;24.00;99.90;;;;;;5074908;28;20505;-81
2021/07/19 07:06:50;;;;;;;6.20;4.70;;;24.20;99.90;;;;;;5075086;28;20550;-81
2021/07/19 07:09:17;;;;;;;8.90;5.47;;;24.20;99.90;;;;;;5074965;28;20490;-81
2021/07/19 07:11:43;;;;;;;7.23;5.03;;;24.00;99.90;;;;;;5080381;28;20462;-81
2021/07/19 07:14:14;;;;;;;8.33;4.83;;;23.90;99.90;;;;;;5095020;28;20454;-81
2021/07/19 07:16:40;;;;;;;6.80;5.03;;;24.20;99.90;;;;;;5094965;28;20527;-81
2021/07/19 07:19:07;;;;;;;8.20;5.00;;;24.50;99.90;;;;;;5094644;28;20483;-81
2021/07/19 07:21:33;;;;;;;6.90;5.17;;;24.80;99.90;;;;;;5094846;28;21025;-81
2021/07/19 07:24:00;;;;;;;10.07;5.77;;;25.10;99.90;;;;;;5094739;28;21012;-81
2021/07/19 07:26:27;;;;;;;6.07;5.13;;;25.30;99.90;;;;;;5094805;28;20957;-81
2021/07/19 07:28:54;;;;;;;9.10;5.30;;;25.20;99.90;;;;;;5094877;28;20496;-81
2021/07/19 07:31:26;;;;;;;5.93;4.90;;;25.40;99.90;;;;;;5094545;28;20447;-81
2021/07/19 07:33:55;;;;;;;7.27;5.30;;;25.30;99.90;;;;;;5094721;28;20967;-81
2021/07/19 07:36:21;;;;;;;7.53;5.67;;;25.20;99.90;;;;;;5094143;28;20442;-81
2021/07/19 07:38:48;;;;;;;7.03;5.30;;;25.10;99.90;;;;;;5094559;28;20532;-81
2021/07/19 07:41:14;;;;;;;6.67;5.77;;;25.30;99.90;;;;;;5094402;28;20485;-81
2021/07/19 07:43:41;;;;;;;7.53;5.60;;;25.30;99.90;;;;;;5094479;28;20549;-81
2021/07/19 07:46:08;;;;;;;5.80;5.23;;;24.90;99.90;;;;;;5094494;28;20483;-81
2021/07/19 07:48:36;;;;;;;6.20;5.20;;;24.80;99.90;;;;;;5094732;28;20508;-81
2021/07/19 07:51:03;;;;;;;9.13;5.97;;;25.10;99.90;;;;;;5094304;28;20443;-81
2021/07/19 07:53:29;;;;;;;5.20;4.70;;;25.30;99.90;;;;;;5094441;28;20537;-81
2021/07/19 07:55:57;;;;;;;5.70;4.60;;;25.30;99.90;;;;;;5094072;28;20505;-81
2021/07/19 07:58:24;;;;;;;6.73;4.93;;;25.30;99.90;;;;;;5094032;28;20536;-81
2021/07/19 08:00:51;;;;;;;7.83;5.60;;;25.30;99.90;;;;;;5094363;28;20533;-81
2021/07/19 08:03:17;;;;;;;6.17;4.97;;;25.50;99.90;;;;;;5094281;28;20450;-81
2021/07/19 08:05:45;;;;;;;8.43;5.70;;;25.60;99.90;;;;;;5094045;28;20507;-81
2021/07/19 08:08:12;;;;;;;8.40;5.47;;;25.50;99.90;;;;;;5094163;28;20842;-81
2021/07/19 08:10:39;;;;;;;6.43;5.43;;;25.60;99.90;;;;;;5093843;28;20450;-81
2021/07/19 08:13:05;;;;;;;5.83;5.23;;;25.70;99.90;;;;;;5076550;28;20501;-81
2021/07/19 08:15:34;;;;;;;9.13;5.50;;;25.70;99.90;;;;;;5073573;28;20451;-81
2021/07/19 08:18:00;;;;;;;5.60;4.90;;;25.70;99.90;;;;;;5073667;28;20554;-81
2021/07/19 08:20:27;;;;;;;7.83;5.30;;;25.50;99.90;;;;;;5073540;28;20479;-81
2021/07/19 08:22:55;;;;;;;6.57;5.00;;;25.30;99.90;;;;;;5073575;28;20542;-81
2021/07/19 08:25:21;;;;;;;5.80;4.83;;;25.50;99.90;;;;;;5073304;28;20962;-81
2021/07/19 08:27:49;;;;;;;6.10;5.20;;;25.70;99.90;;;;;;5073568;28;20554;-81
2021/07/19 08:30:17;;;;;;;12.00;5.83;;;25.90;99.90;;;;;;5073375;28;20538;-81
2021/07/19 08:32:45;;;;;;;5.87;4.60;;;26.00;99.90;;;;;;5073518;28;20543;-81
2021/07/19 08:35:13;;;;;;;5.53;4.53;;;26.20;99.90;;;;;;5072918;28;20459;-81
2021/07/19 08:37:41;;;;;;;7.27;4.80;;;26.20;99.90;;;;;;5073187;28;20537;-81
2021/07/19 08:40:11;;;;;;;5.53;5.00;;;26.00;99.90;;;;;;5073232;28;20555;-81
2021/07/19 08:42:39;;;;;;;6.17;5.63;;;26.00;99.90;;;;;;5073529;28;20483;-81
2021/07/19 08:45:08;;;;;;;6.10;5.60;;;26.00;99.90;;;;;;5073118;28;20447;-81
2021/07/19 08:47:36;;;;;;;7.23;5.80;;;26.20;99.80;;;;;;5072953;28;20447;-81
2021/07/19 08:50:04;;;;;;;6.73;5.20;;;26.20;99.40;;;;;;5073038;28;20479;-81
2021/07/19 08:52:31;;;;;;;7.77;5.40;;;26.20;99.30;;;;;;5072649;28;20491;-81
2021/07/19 08:54:59;;;;;;;6.57;4.87;;;26.30;98.50;;;;;;5072981;28;20458;-82
2021/07/19 08:57:28;;;;;;;5.33;4.83;;;26.10;98.10;;;;;;5073197;28;20874;-81
2021/07/19 09:00:03;;;;;;;5.90;5.27;;;26.00;98.30;;;;;;5073263;28;20515;-81
2021/07/19 09:02:30;;;;;;;10.73;5.57;;;25.70;97.80;;;;;;5073095;28;20451;-81
2021/07/19 09:04:57;;;;;;;5.83;5.17;;;25.70;98.70;;;;;;5072911;28;20453;-81
2021/07/19 09:07:24;;;;;;;8.30;4.80;;;25.80;99.20;;;;;;5072851;28;20542;-81
2021/07/19 09:09:52;;;;;;;5.93;4.70;;;25.90;98.80;;;;;;5073169;28;20542;-81
2021/07/19 09:12:29;;;;;;;5.53;5.03;;;25.60;98.60;;;;;;5083446;28;20953;-81
2021/07/19 09:14:57;;;;;;;7.40;5.10;;;25.40;98.10;;;;;;5093118;28;20538;-81
2021/07/19 09:17:24;;;;;;;7.20;5.27;;;25.10;99.10;;;;;;5093031;28;20478;-81
2021/07/19 09:19:51;;;;;;;8.57;5.03;;;25.10;99.90;;;;;;5092831;28;20486;-81
2021/07/19 09:22:23;;;;;;;6.10;5.07;;;25.20;99.90;;;;;;5093196;28;20450;-81
2021/07/19 09:24:50;;;;;;;5.73;5.20;;;25.30;99.90;;;;;;5093175;28;20476;-81
2021/07/19 09:27:19;;;;;;;5.60;4.47;;;25.70;99.90;;;;;;5092855;28;20474;-81
2021/07/19 09:29:46;;;;;;;6.20;5.10;;;26.00;99.90;;;;;;5092903;28;20463;-81
2021/07/19 09:32:15;;;;;;;6.10;4.93;;;26.30;99.20;;;;;;5092873;28;20450;-81
2021/07/19 09:34:42;;;;;;;6.23;4.70;;;26.50;98.70;;;;;;5092864;28;20477;-81
2021/07/19 09:37:11;;;;;;;5.80;5.30;;;26.60;97.90;;;;;;5092771;28;20458;-81
2021/07/19 09:39:42;;;;;;;6.07;5.40;;;26.60;98.60;;;;;;5092713;28;20988;-81
2021/07/19 09:42:11;;;;;;;6.10;4.90;;;26.60;97.80;;;;;;5092778;28;20452;-81
2021/07/19 09:44:38;;;;;;;5.47;4.63;;;26.50;97.90;;;;;;5092579;28;20479;-81
2021/07/19 09:47:06;;;;;;;5.27;4.33;;;26.20;98.60;;;;;;5092447;28;20482;-81
2021/07/19 09:49:35;;;;;;;5.27;4.80;;;25.80;98.50;;;;;;5092838;28;20446;-81
2021/07/19 09:52:05;;;;;;;6.03;4.53;;;25.30;97.70;;;;;;5092694;28;20451;-82
2021/07/19 09:54:37;;;;;;;5.93;5.17;;;25.10;97.60;;;;;;5092794;28;20443;-82
2021/07/19 09:57:05;;;;;;;6.73;5.20;;;25.00;98.30;;;;;;5092382;28;20475;-82
2021/07/19 09:59:33;;;;;;;7.40;4.40;;;25.00;98.90;;;;;;5092402;28;20594;-82
2021/07/19 10:02:01;;;;;;;5.53;4.53;;;25.00;98.70;;;;;;5092278;28;20948;-82
2021/07/19 10:04:28;;;;;;;6.93;4.97;;;25.00;98.80;;;;;;5092758;28;20482;-81
2021/07/19 10:06:58;;;;;;;8.57;5.43;;;24.80;99.00;;;;;;5096189;28;20478;-81
2021/07/19 10:09:25;;;;;;;5.10;4.60;;;24.70;99.80;;;;;;5096519;28;20990;-81
2021/07/19 10:11:53;;;;;;;11.63;4.30;;;24.70;99.80;;;;;;5089318;28;20516;-81
2021/07/19 10:14:29;;;;;;;7.33;4.73;;;24.80;99.90;;;;;;5076341;28;20448;-81
2021/07/19 10:16:58;;;;;;;7.20;4.33;;;25.10;99.90;;;;;;5076177;28;20447;-81
2021/07/19 10:19:25;;;;;;;6.80;4.60;;;25.40;99.90;;;;;;5076054;28;20560;-81
2021/07/19 10:21:53;;;;;;;5.47;4.47;;;25.70;99.60;;;;;;5076063;28;20501;-81
2021/07/19 10:24:21;;;;;;;4.73;4.33;;;26.00;99.40;;;;;;5075803;28;20447;-81
2021/07/19 10:26:49;;;;;;;4.43;3.90;;;26.00;98.60;;;;;;5075982;28;20447;-81
2021/07/19 10:29:17;;;;;;;7.03;4.97;;;26.00;98.00;;;;;;5076005;28;20443;-81
2021/07/19 10:31:44;;;;;;;6.63;5.03;;;26.10;99.40;;;;;;5075880;28;20450;-81
2021/07/19 10:34:13;;;;;;;4.77;4.23;;;26.00;99.00;;;;;;5075882;28;20447;-80
2021/07/19 10:36:45;;;;;;;5.50;4.03;;;25.80;98.90;;;;;;5075607;28;20501;-81
2021/07/19 10:39:19;;;;;;;4.63;4.10;;;25.30;99.80;;;;;;5075806;28;20633;-80
2021/07/19 10:41:59;;;;;;;5.53;4.23;;;24.80;99.90;;;;;;5075662;28;20447;-81
2021/07/19 10:44:28;;;;;;;5.90;4.90;;;24.40;99.90;;;;;;5075807;28;20453;-80
2021/07/19 10:46:57;;;;;;;4.70;4.07;;;24.00;99.90;;;;;;5075448;28;20479;-81
2021/07/19 10:49:30;;;;;;;5.23;4.70;;;23.70;99.90;;;;;;5075360;28;20939;-81
2021/07/19 10:51:57;;;;;;;5.03;4.07;;;23.50;99.90;;;;;;5075457;28;20838;-80
2021/07/19 10:54:24;;;;;;;5.70;4.60;;;23.60;99.90;;;;;;5075441;28;20475;-80
2021/07/19 10:56:55;;;;;;;6.40;3.93;;;23.70;99.90;;;;;;5075005;28;20468;-80
2021/07/19 10:59:27;;;;;;;4.07;3.77;;;23.80;99.90;;;;;;5075144;28;20483;-81
2021/07/19 11:01:55;;;;;;;5.80;4.20;;;24.00;99.90;;;;;;5074954;28;20447;-81
2021/07/19 11:04:23;;;;;;;5.83;4.63;;;24.20;99.90;;;;;;5075408;28;20553;-81
2021/07/19 11:06:56;;;;;;;5.10;4.60;;;24.50;99.90;;;;;;5075009;28;20462;-81
2021/07/19 11:09:33;;;;;;;4.70;3.87;;;24.60;99.90;;;;;;5075130;28;20447;-81
2021/07/19 11:12:08;;;;;;;6.47;4.57;;;24.60;99.90;;;;;;5082787;28;20446;-81
2021/07/19 11:14:43;;;;;;;5.53;4.90;;;24.80;99.90;;;;;;5095442;28;20883;-81
2021/07/19 11:17:10;;;;;;;5.40;4.67;;;25.20;99.90;;;;;;5094556;28;20488;-81
2021/07/19 11:19:39;;;;;;;4.40;3.70;;;25.40;99.90;;;;;;5095039;28;20482;-81
2021/07/19 11:22:07;;;;;;;4.97;4.30;;;25.50;99.90;;;;;;5094789;28;20454;-81
2021/07/19 11:24:43;;;;;;;5.97;3.67;;;25.80;99.90;;;;;;5094736;28;20941;-81
2021/07/19 11:27:17;;;;;;;4.90;4.10;;;26.10;99.90;;;;;;5094923;28;20527;-81
2021/07/19 11:29:43;;;;;;;6.33;3.77;;;26.20;99.90;;;;;;5094748;28;20453;-81
2021/07/19 11:32:18;;;;;;;5.33;4.13;;;26.20;99.90;;;;;;5094859;28;20455;-81
2021/07/19 11:34:47;;;;;;;3.83;3.53;;;26.00;99.90;;;;;;5094658;28;20446;-81
2021/07/19 11:37:14;;;;;;;4.70;3.10;;;26.00;99.90;;;;;;5094547;28;20450;-81
2021/07/19 11:39:52;;;;;;;4.77;3.93;;;25.90;99.90;;;;;;5094808;28;20530;-81
2021/07/19 11:42:30;;;;;;;5.70;4.20;;;25.90;99.90;;;;;;5094512;28;20478;-81
2021/07/19 11:45:10;;;;;;;3.40;3.10;;;26.00;99.90;;;;;;5094438;28;20537;-81
2021/07/19 11:47:43;;;;;;;5.20;3.20;;;26.00;99.90;;;;;;5094212;28;20512;-81
2021/07/19 11:50:15;;;;;;;4.37;2.60;;;26.10;99.80;;;;;;5094685;28;20450;-81
2021/07/19 11:52:42;;;;;;;3.43;2.83;;;26.10;98.70;;;;;;5094216;28;20482;-81
2021/07/19 11:55:11;;;;;;;6.80;2.87;;;26.30;99.90;;;;;;5094210;28;20480;-81
2021/07/19 11:57:43;;;;;;;3.03;2.67;;;26.50;98.60;;;;;;5094270;28;20454;-81
2021/07/19 12:00:12;;;;;;;4.07;2.27;;;26.60;98.40;;;;;;5093985;28;20474;-81
2021/07/19 12:02:38;;;;;;;4.00;2.77;;;26.70;98.40;;;;;;5094262;28;20478;-81
2021/07/19 12:05:12;;;;;;;9.20;2.97;;;26.80;97.50;;;;;;5094256;28;20492;-81
2021/07/19 12:07:39;;;;;;;6.43;2.70;;;26.80;97.40;;;;;;5094153;28;20538;-81
2021/07/19 12:10:07;;;;;;;3.40;2.40;;;26.90;97.30;;;;;;5094130;28;20533;-81
2021/07/19 12:12:33;;;;;;;3.63;2.50;;;27.10;97.60;;;;;;5081032;28;20443;-81
2021/07/19 12:15:03;;;;;;;3.10;2.67;;;27.30;97.40;;;;;;5073858;28;20534;-81
2021/07/19 12:17:32;;;;;;;3.40;2.30;;;27.30;97.10;;;;;;5073743;28;20545;-81
2021/07/19 12:19:59;;;;;;;4.70;2.37;;;27.10;96.60;;;;;;5073779;28;20518;-81
2021/07/19 12:22:25;;;;;;;3.70;2.80;;;27.00;96.50;;;;;;5073648;28;20842;-81
2021/07/19 12:24:55;;;;;;;2.97;2.67;;;27.00;96.80;;;;;;5073643;28;20542;-81
2021/07/19 12:27:22;;;;;;;5.30;2.90;;;27.00;96.20;;;;;;5072860;28;20531;-81
2021/07/19 12:29:51;;;;;;;2.63;2.43;;;27.20;97.20;;;;;;5073357;28;20893;-81
2021/07/19 12:32:20;;;;;;;3.63;2.50;;;27.10;96.10;;;;;;5073512;28;20451;-81
2021/07/19 12:34:47;;;;;;;3.43;2.67;;;27.30;96.50;;;;;;5073448;28;20475;-82
2021/07/19 12:37:15;;;;;;;3.57;2.70;;;27.20;95.90;;;;;;5073436;28;20450;-82
2021/07/19 12:39:43;;;;;;;3.23;2.70;;;27.00;96.50;;;;;;5073045;28;20475;-81
2021/07/19 12:42:12;;;;;;;8.60;3.30;;;26.90;97.10;;;;;;5073606;28;20475;-81
2021/07/19 12:44:40;;;;;;;3.73;3.00;;;26.60;96.90;;;;;;5073095;28;20558;-81
2021/07/19 12:47:07;;;;;;;2.67;2.47;;;26.50;97.80;;;;;;5073206;28;20451;-81
2021/07/19 12:49:36;;;;;;;8.97;3.50;;;26.20;97.40;;;;;;5073167;28;20490;-82
2021/07/19 12:52:05;;;;;;;3.13;2.83;;;25.90;97.00;;;;;;5073182;28;20539;-82
2021/07/19 12:54:33;;;;;;;3.87;3.53;;;25.50;98.50;;;;;;5073012;28;20487;-81
2021/07/19 12:57:00;;;;;;;3.63;2.83;;;25.40;97.60;;;;;;5072921;28;20574;-82
2021/07/19 12:59:27;;;;;;;3.60;3.30;;;25.50;98.80;;;;;;5072938;28;20479;-82
2021/07/19 13:01:57;;;;;;;3.53;2.80;;;25.70;98.00;;;;;;5073012;28;20482;-81
2021/07/19 13:04:24;;;;;;;3.20;2.63;;;25.70;98.00;;;;;;5072903;28;20447;-81
2021/07/19 13:06:53;;;;;;;6.30;3.07;;;25.70;97.90;;;;;;5072888;28;20455;-81
2021/07/19 13:09:22;;;;;;;3.87;2.80;;;25.80;97.90;;;;;;5072628;28;20550;-82